Time;durP1;ratioP1;P1;durP2;ratioP2;P2;SDS_P1;SDS_P2;PMS_P1;PMS_P2;Temp;Humidity;BMP_temperature;BMP_pressure;BME280_temperature;BME280_humidity;BME280_pressure;Samples;Min_cycle;Max_cycle;Signal;HPM_P1;HPM_P2
2021/12/05 00:18:46;;;;;;;11.65;2.50;;;4.00;99.90;;;;;;5096975;28;20101;-64
2021/12/05 00:24:01;;;;;;;10.38;1.95;;;4.00;99.90;;;;;;5096788;28;20027;-63
2021/12/05 00:26:30;;;;;;;16.52;2.65;;;4.00;99.90;;;;;;5097047;28;20127;-63
2021/12/05 00:29:12;;;;;;;13.60;2.75;;;4.00;99.90;;;;;;5096923;28;20039;-63
2021/12/05 00:32:31;;;;;;;11.02;1.88;;;4.00;99.90;;;;;;5096941;28;20032;-62
2021/12/05 00:45:18;;;;;;;7.18;2.05;;;4.20;99.90;;;;;;5096849;28;20111;-64
2021/12/05 01:09:10;;;;;;;11.27;2.50;;;4.30;99.90;;;;;;5095930;28;20054;-63
2021/12/05 01:16:39;;;;;;;11.98;2.35;;;4.30;99.90;;;;;;5095759;28;20105;-62
2021/12/05 01:19:08;;;;;;;10.45;2.00;;;4.30;99.90;;;;;;5095858;28;20070;-62
2021/12/05 01:21:38;;;;;;;11.23;1.95;;;4.40;99.90;;;;;;5095809;28;20107;-63
2021/12/05 01:34:23;;;;;;;9.90;1.80;;;4.60;99.90;;;;;;5099573;28;20036;-63
2021/12/05 01:47:46;;;;;;;7.22;1.80;;;4.70;99.90;;;;;;5099247;28;20032;-62
2021/12/05 01:53:24;;;;;;;9.70;1.70;;;4.70;99.90;;;;;;5089820;28;20036;-64
2021/12/05 02:41:43;;;;;;;8.27;2.28;;;4.60;99.90;;;;;;5098841;28;20074;-63
2021/12/05 02:44:20;;;;;;;8.00;2.05;;;4.70;99.90;;;;;;5098231;28;20024;-63
2021/12/05 02:47:00;;;;;;;6.57;1.90;;;4.70;99.90;;;;;;5098034;28;20391;-63
2021/12/05 02:49:28;;;;;;;6.95;2.00;;;4.70;99.90;;;;;;5098766;28;20073;-62
2021/12/05 02:52:00;;;;;;;8.45;1.85;;;4.60;99.90;;;;;;5098007;28;20029;-63
2021/12/05 02:54:32;;;;;;;5.55;1.63;;;4.70;99.90;;;;;;5098783;28;20036;-63
2021/12/05 02:56:59;;;;;;;5.82;1.70;;;4.70;99.90;;;;;;5098597;28;20074;-63
2021/12/05 02:59:40;;;;;;;7.00;2.03;;;4.70;99.90;;;;;;5097870;28;20039;-63
2021/12/05 03:02:14;;;;;;;5.72;1.98;;;4.80;99.90;;;;;;5098649;28;20166;-63
2021/12/05 03:04:49;;;;;;;6.57;2.17;;;4.70;99.90;;;;;;5097737;28;20031;-63
2021/12/05 03:07:19;;;;;;;6.88;2.08;;;4.70;99.90;;;;;;5097936;28;20042;-63
2021/12/05 03:09:46;;;;;;;5.82;1.80;;;4.80;99.90;;;;;;5098812;28;20078;-61
2021/12/05 03:12:17;;;;;;;5.93;2.10;;;4.80;99.90;;;;;;5098512;28;20089;-62
2021/12/05 03:14:46;;;;;;;6.40;2.03;;;4.80;99.90;;;;;;5097414;28;20036;-63
2021/12/05 03:17:13;;;;;;;4.38;1.90;;;4.80;99.90;;;;;;5080286;28;20102;-62
2021/12/05 03:19:38;;;;;;;8.60;2.47;;;4.80;99.90;;;;;;5098121;28;20120;-63
2021/12/05 03:22:05;;;;;;;9.25;2.22;;;4.80;99.90;;;;;;5080538;28;20302;-63
2021/12/05 03:24:32;;;;;;;7.30;2.47;;;4.80;99.90;;;;;;5098607;28;20024;-62
2021/12/05 03:26:59;;;;;;;6.50;2.53;;;4.70;99.90;;;;;;5097187;28;20073;-62
2021/12/05 03:29:25;;;;;;;6.38;2.50;;;4.70;99.90;;;;;;5097023;28;20031;-62
2021/12/05 03:31:53;;;;;;;8.52;2.40;;;4.80;99.90;;;;;;5097906;28;20111;-62
2021/12/05 03:34:22;;;;;;;8.55;2.70;;;4.80;99.90;;;;;;5097071;28;20059;-63
2021/12/05 03:36:52;;;;;;;4.93;2.00;;;4.70;99.90;;;;;;5097763;28;20097;-61
2021/12/05 03:39:19;;;;;;;4.85;2.13;;;4.70;99.90;;;;;;5098074;28;20111;-64
2021/12/05 03:41:47;;;;;;;7.53;2.20;;;4.70;99.90;;;;;;5096886;28;20024;-62
2021/12/05 03:44:16;;;;;;;4.43;2.00;;;4.70;99.90;;;;;;5080031;28;20024;-63
2021/12/05 03:46:42;;;;;;;4.95;1.73;;;4.70;99.90;;;;;;5097307;28;20064;-63
2021/12/05 03:49:12;;;;;;;5.22;2.40;;;4.70;99.90;;;;;;5096732;28;20092;-64
2021/12/05 03:51:43;;;;;;;4.25;2.25;;;4.80;99.90;;;;;;5096731;28;20063;-63
2021/12/05 03:54:10;;;;;;;5.50;2.35;;;4.70;99.90;;;;;;5095888;28;20052;-63
2021/12/05 03:56:37;;;;;;;4.80;1.92;;;4.70;99.90;;;;;;5097665;28;20044;-63
2021/12/05 03:59:07;;;;;;;3.35;1.63;;;4.70;99.90;;;;;;5097813;28;20028;-64
2021/12/05 04:01:33;;;;;;;8.18;2.35;;;4.70;99.90;;;;;;5096469;28;20303;-62
2021/12/05 04:03:59;;;;;;;3.72;1.98;;;4.60;99.90;;;;;;5096488;28;20028;-63
2021/12/05 04:06:27;;;;;;;4.47;1.80;;;4.60;99.90;;;;;;5096825;28;20043;-63
2021/12/05 04:08:56;;;;;;;6.68;2.13;;;4.50;99.90;;;;;;5096387;28;20395;-63
2021/12/05 04:11:32;;;;;;;6.22;1.80;;;4.60;99.90;;;;;;5097438;28;20279;-62
2021/12/05 04:13:58;;;;;;;5.65;1.95;;;4.60;99.90;;;;;;5096450;28;20156;-62
2021/12/05 04:16:25;;;;;;;5.45;2.17;;;4.60;99.90;;;;;;5096103;28;20048;-63
2021/12/05 04:18:53;;;;;;;3.42;1.70;;;4.60;99.90;;;;;;5097181;28;20040;-62
2021/12/05 04:21:19;;;;;;;2.85;1.80;;;4.60;99.90;;;;;;5096217;28;20032;-63
2021/12/05 04:23:47;;;;;;;3.53;2.00;;;4.50;99.90;;;;;;5096351;28;20034;-63
2021/12/05 04:26:17;;;;;;;3.35;1.83;;;4.50;99.90;;;;;;5096146;28;20024;-63
2021/12/05 04:28:46;;;;;;;3.17;1.90;;;4.50;99.90;;;;;;5096293;28;20086;-63
2021/12/05 04:31:13;;;;;;;3.13;1.75;;;4.50;99.90;;;;;;5096033;28;20395;-62
2021/12/05 04:33:39;;;;;;;4.25;2.55;;;4.50;99.90;;;;;;5096506;28;20415;-62
2021/12/05 04:36:07;;;;;;;5.05;2.40;;;4.60;99.90;;;;;;5096106;28;20348;-62
2021/12/05 04:38:33;;;;;;;3.72;2.13;;;4.50;99.90;;;;;;5095996;28;20034;-62
2021/12/05 04:41:01;;;;;;;6.35;2.33;;;4.50;99.90;;;;;;5096913;28;20415;-63
2021/12/05 04:43:35;;;;;;;5.32;2.20;;;4.50;99.90;;;;;;5096048;28;20381;-62
2021/12/05 04:46:02;;;;;;;4.35;2.22;;;4.50;99.90;;;;;;5097004;28;20032;-62
2021/12/05 04:48:29;;;;;;;4.78;2.45;;;4.50;99.90;;;;;;5096317;28;20303;-62
2021/12/05 04:50:54;;;;;;;5.45;2.50;;;4.50;99.90;;;;;;5096818;28;20032;-63
2021/12/05 04:53:26;;;;;;;4.85;2.90;;;4.40;99.90;;;;;;5095872;28;20048;-62
2021/12/05 04:55:53;;;;;;;6.32;2.75;;;4.40;99.90;;;;;;5079826;28;20036;-63
2021/12/05 04:58:21;;;;;;;4.63;3.08;;;4.40;99.90;;;;;;5096011;28;20123;-61
2021/12/05 05:00:47;;;;;;;7.18;3.47;;;4.40;99.90;;;;;;5095884;28;20466;-61
2021/12/05 05:03:14;;;;;;;7.22;3.42;;;4.40;99.90;;;;;;5096655;28;20051;-61
2021/12/05 05:05:46;;;;;;;4.82;3.60;;;4.30;99.90;;;;;;5097333;28;20040;-61
2021/12/05 05:08:12;;;;;;;;;;;4.30;99.90;;;;;;5101144;28;20426;-63
2021/12/05 05:10:38;;;;;;;4.18;3.50;;;4.40;99.90;;;;;;5099818;28;19912;-63
2021/12/05 05:13:04;;;;;;;4.55;3.78;;;4.40;99.90;;;;;;5083075;28;20059;-63
2021/12/05 05:15:31;;;;;;;5.72;3.88;;;4.40;99.90;;;;;;5100599;28;20168;-64
2021/12/05 05:17:59;;;;;;;7.03;4.20;;;4.40;99.90;;;;;;5100451;28;20116;-64
2021/12/05 05:39:56;;;;;;;6.05;2.97;;;4.50;99.90;;;;;;5099286;28;20024;-62
2021/12/05 05:47:36;;;;;;;5.25;3.50;;;4.40;99.90;;;;;;5099202;28;20063;-65
2021/12/05 05:50:03;;;;;;;6.53;3.85;;;4.40;99.90;;;;;;5100263;28;20064;-63
2021/12/05 05:52:31;;;;;;;6.50;3.85;;;4.40;99.90;;;;;;5099067;28;20401;-63
2021/12/05 05:54:58;;;;;;;4.38;3.97;;;4.40;99.90;;;;;;5099124;28;20086;-64
2021/12/05 06:00:08;;;;;;;4.80;3.28;;;4.40;99.90;;;;;;5099805;28;20088;-64
2021/12/05 06:05:27;;;;;;;6.30;3.47;;;4.50;99.90;;;;;;5099768;28;20032;-65
2021/12/05 06:07:52;;;;;;;3.60;3.22;;;4.50;99.90;;;;;;5082189;28;20024;-64
2021/12/05 06:10:23;;;;;;;4.47;3.45;;;4.50;99.90;;;;;;5082020;28;20116;-63
2021/12/05 06:12:50;;;;;;;2.58;2.25;;;4.50;99.90;;;;;;5098745;28;20093;-64
2021/12/05 06:15:19;;;;;;;5.43;3.47;;;4.50;99.90;;;;;;5099208;28;20110;-65
2021/12/05 06:17:45;;;;;;;4.63;3.33;;;4.50;99.90;;;;;;5098648;28;20040;-64
2021/12/05 06:20:15;;;;;;;5.85;3.10;;;4.50;99.90;;;;;;5099376;28;20024;-64
2021/12/05 06:22:42;;;;;;;5.72;2.85;;;4.50;99.90;;;;;;5099291;28;20036;-65
2021/12/05 06:25:14;;;;;;;4.15;2.92;;;4.40;99.90;;;;;;5098378;28;20035;-65
2021/12/05 06:27:41;;;;;;;4.63;2.80;;;4.50;99.90;;;;;;5098525;28;20336;-65
2021/12/05 06:30:15;;;;;;;4.88;3.17;;;4.50;99.90;;;;;;5099137;28;20036;-65
2021/12/05 06:38:39;;;;;;;5.15;2.97;;;4.50;99.90;;;;;;5098574;28;20032;-65
2021/12/05 06:41:19;;;;;;;3.22;2.90;;;4.60;99.90;;;;;;5099134;28;20044;-66
2021/12/05 06:48:43;;;;;;;5.55;3.20;;;4.70;99.90;;;;;;5098930;28;20052;-64
2021/12/05 06:51:14;;;;;;;3.15;2.80;;;4.60;99.90;;;;;;5098949;28;20069;-64
2021/12/05 06:53:40;;;;;;;4.80;2.90;;;4.50;99.90;;;;;;5098742;28;20028;-62
2021/12/05 06:56:06;;;;;;;3.67;3.03;;;4.50;99.90;;;;;;5098039;28;20084;-62
2021/12/05 06:58:33;;;;;;;3.75;3.10;;;4.40;99.90;;;;;;5098662;28;20028;-63
2021/12/05 07:01:01;;;;;;;5.50;4.15;;;4.40;99.90;;;;;;5098555;28;20028;-63
2021/12/05 07:03:27;;;;;;;5.80;3.78;;;4.40;99.90;;;;;;5098544;28;20109;-63
2021/12/05 07:06:03;;;;;;;6.03;4.18;;;4.40;99.90;;;;;;5098534;28;20033;-63
2021/12/05 07:08:33;;;;;;;5.65;4.60;;;4.40;99.90;;;;;;5097891;28;20047;-64
2021/12/05 07:11:11;;;;;;;7.63;4.50;;;4.40;99.90;;;;;;5098618;28;20058;-62
2021/12/05 07:16:41;;;;;;;6.25;4.57;;;4.40;99.90;;;;;;5078529;28;20060;-63
2021/12/05 07:19:24;;;;;;;7.57;5.00;;;4.50;99.90;;;;;;5098739;28;20040;-63
2021/12/05 07:21:54;;;;;;;5.32;4.72;;;4.50;99.90;;;;;;5098529;28;20449;-63
2021/12/05 07:24:49;;;;;;;5.50;4.60;;;4.50;99.90;;;;;;5098177;28;20036;-61
2021/12/05 07:41:09;;;;;;;5.25;3.88;;;4.40;99.90;;;;;;5097836;28;20036;-61
2021/12/05 07:43:35;;;;;;;4.85;4.35;;;4.40;99.90;;;;;;5097125;28;20032;-62
2021/12/05 07:46:06;;;;;;;6.97;4.53;;;4.50;99.90;;;;;;5097241;28;20119;-62
2021/12/05 07:48:35;;;;;;;6.28;4.57;;;4.50;99.90;;;;;;5098046;28;20044;-63
2021/12/05 07:51:21;;;;;;;6.25;4.53;;;4.60;99.90;;;;;;5097684;28;20044;-62
2021/12/05 07:56:50;;;;;;;5.25;4.78;;;4.70;99.90;;;;;;5089123;28;20395;-63
2021/12/05 08:16:01;;;;;;;7.10;5.38;;;5.40;99.90;;;;;;5096688;28;20075;-63
2021/12/05 08:18:28;;;;;;;5.47;4.68;;;5.30;99.90;;;;;;5097159;28;20044;-63
2021/12/05 08:20:54;;;;;;;6.13;4.50;;;5.20;99.90;;;;;;5097151;28;20117;-64
2021/12/05 08:23:23;;;;;;;5.43;4.72;;;5.20;99.90;;;;;;5097114;28;20061;-62
2021/12/05 08:25:57;;;;;;;6.72;4.95;;;5.20;99.90;;;;;;5097263;28;20036;-63
2021/12/05 08:29:08;;;;;;;4.82;4.28;;;5.10;99.90;;;;;;5080911;28;20044;-61
2021/12/05 08:31:38;;;;;;;4.75;3.95;;;5.10;99.90;;;;;;5091000;28;20044;-62
2021/12/05 08:34:29;;;;;;;7.43;4.97;;;4.90;99.90;;;;;;5096465;28;20035;-61
2021/12/05 08:37:38;;;;;;;5.75;5.07;;;4.90;99.90;;;;;;5095870;28;20403;-62
2021/12/05 08:45:35;;;;;;;7.35;5.10;;;4.80;99.90;;;;;;5096884;28;20032;-63
2021/12/05 10:07:01;;;;;;;0.80;0.80;;;6.20;99.90;;;;;;5099642;28;20031;-63
2021/12/05 10:09:59;;;;;;;0.93;0.82;;;5.90;99.90;;;;;;5099880;28;20032;-64
2021/12/05 10:37:46;;;;;;;2.78;2.00;;;5.60;99.90;;;;;;5099143;28;20094;-64
2021/12/05 10:40:30;;;;;;;2.45;2.03;;;5.70;99.90;;;;;;5098332;28;20127;-64
2021/12/05 10:42:56;;;;;;;2.35;2.15;;;5.80;99.90;;;;;;5098279;28;20020;-65
2021/12/05 10:45:31;;;;;;;3.35;2.40;;;6.30;99.90;;;;;;5098848;28;20039;-64
2021/12/05 10:48:00;;;;;;;2.92;2.50;;;6.30;99.90;;;;;;5099532;28;20088;-65
2021/12/05 10:50:51;;;;;;;3.20;2.67;;;6.10;99.90;;;;;;5098430;28;20043;-64
2021/12/05 10:53:35;;;;;;;3.58;3.28;;;6.30;99.90;;;;;;5099520;28;20027;-65
2021/12/05 10:56:22;;;;;;;4.25;3.40;;;6.70;99.90;;;;;;5098097;28;20052;-64
2021/12/05 10:59:09;;;;;;;3.55;3.25;;;7.00;99.90;;;;;;5098720;28;20036;-65
2021/12/05 11:01:57;;;;;;;3.95;3.55;;;7.20;99.90;;;;;;5099107;28;20043;-64
2021/12/05 11:04:28;;;;;;;3.58;3.28;;;6.80;99.90;;;;;;5098226;28;20338;-63
2021/12/05 11:06:58;;;;;;;5.43;3.42;;;7.10;99.90;;;;;;5098450;28;20434;-64
2021/12/05 11:09:30;;;;;;;3.80;3.40;;;7.40;99.90;;;;;;5098385;28;20448;-63
2021/12/05 11:12:00;;;;;;;4.13;3.72;;;7.50;99.90;;;;;;5097684;28;20056;-64
2021/12/05 11:14:32;;;;;;;4.05;3.67;;;7.60;99.90;;;;;;5098486;28;20089;-65
2021/12/05 11:17:05;;;;;;;4.73;3.90;;;7.60;99.90;;;;;;5098149;28;20051;-65
2021/12/05 11:19:39;;;;;;;4.43;4.03;;;7.50;99.90;;;;;;5098617;28;20269;-66
2021/12/05 11:22:05;;;;;;;6.13;4.25;;;7.40;99.90;;;;;;5080726;28;20295;-64
2021/12/05 11:24:41;;;;;;;5.10;4.15;;;7.30;99.90;;;;;;5097286;28;20028;-66
2021/12/05 11:27:34;;;;;;;4.55;4.15;;;7.00;99.90;;;;;;5097509;28;20066;-64
2021/12/05 11:30:03;;;;;;;;;;;6.80;99.90;;;;;;5098378;28;20299;-65
2021/12/05 11:32:59;;;;;;;5.25;4.65;;;6.90;99.90;;;;;;5097342;28;19912;-65
2021/12/05 11:35:32;;;;;;;4.65;4.15;;;7.00;99.90;;;;;;5098133;28;20331;-65
2021/12/05 11:38:17;;;;;;;;;;;7.10;99.90;;;;;;5098297;28;20033;-64
2021/12/05 11:41:02;;;;;;;5.50;4.22;;;7.50;99.90;;;;;;5097833;28;19915;-65
2021/12/05 11:43:35;;;;;;;5.10;4.03;;;7.70;99.90;;;;;;5097823;28;20024;-65
2021/12/05 11:46:07;;;;;;;4.65;3.58;;;7.80;99.90;;;;;;5097781;28;20035;-64
2021/12/05 11:48:36;;;;;;;4.82;4.32;;;7.50;99.90;;;;;;5098152;28;20032;-64
2021/12/05 11:51:17;;;;;;;4.30;4.00;;;7.20;99.90;;;;;;5097677;28;20054;-67
2021/12/05 11:54:09;;;;;;;4.72;4.05;;;7.10;99.90;;;;;;5097061;28;20052;-64
2021/12/05 11:56:34;;;;;;;4.55;4.15;;;6.90;99.90;;;;;;5098284;28;20032;-65
2021/12/05 11:59:22;;;;;;;4.25;3.85;;;6.60;99.90;;;;;;5097283;28;20390;-65
2021/12/05 12:01:57;;;;;;;4.45;4.00;;;6.70;99.90;;;;;;5079963;28;20260;-64
2021/12/05 12:04:38;;;;;;;5.68;4.40;;;6.70;99.90;;;;;;5096663;28;20032;-67
2021/12/05 12:07:19;;;;;;;4.15;3.85;;;7.00;99.90;;;;;;5098062;28;20410;-64
2021/12/05 12:09:48;;;;;;;5.53;4.38;;;7.50;99.90;;;;;;5097421;28;20024;-63
2021/12/05 12:12:16;;;;;;;5.00;3.85;;;8.20;99.90;;;;;;5097490;28;20299;-64
2021/12/05 12:14:42;;;;;;;5.93;3.88;;;8.40;99.90;;;;;;5096426;28;20036;-64
2021/12/05 12:17:15;;;;;;;5.45;3.47;;;8.50;99.90;;;;;;5096599;28;20421;-64
2021/12/05 12:19:41;;;;;;;4.25;3.85;;;8.30;99.90;;;;;;5097380;28;20028;-65
2021/12/05 12:22:08;;;;;;;3.63;3.33;;;8.20;99.90;;;;;;5097082;28;20025;-65
2021/12/05 12:24:37;;;;;;;4.05;3.70;;;8.50;99.90;;;;;;5097086;28;20414;-65
2021/12/05 12:27:03;;;;;;;4.38;3.80;;;8.50;99.90;;;;;;5097085;28;20021;-65
2021/12/05 12:29:30;;;;;;;6.03;4.10;;;8.00;99.90;;;;;;5096317;28;20024;-65
2021/12/05 12:32:11;;;;;;;4.05;3.75;;;7.80;99.90;;;;;;5096445;28;20039;-65
2021/12/05 12:34:39;;;;;;;4.88;4.47;;;7.70;99.90;;;;;;5096779;28;20414;-64
2021/12/05 12:37:06;;;;;;;4.82;4.22;;;7.70;99.90;;;;;;5097018;28;20155;-64
2021/12/05 12:39:37;;;;;;;4.60;4.20;;;7.50;99.90;;;;;;5097014;28;20024;-65
2021/12/05 12:42:20;;;;;;;4.57;4.07;;;7.70;99.90;;;;;;5097576;28;20368;-64
2021/12/05 12:45:02;;;;;;;5.32;4.82;;;7.70;99.90;;;;;;5096961;28;20032;-64
2021/12/05 12:47:34;;;;;;;6.25;5.20;;;7.80;99.90;;;;;;5097600;28;20387;-65
2021/12/05 12:50:25;;;;;;;5.53;4.97;;;7.60;99.90;;;;;;5097148;28;20032;-63
2021/12/05 12:52:58;;;;;;;5.18;4.60;;;7.50;99.90;;;;;;5096756;28;20024;-64
2021/12/05 12:55:28;;;;;;;5.32;4.88;;;7.70;99.90;;;;;;5097418;28;20035;-65
2021/12/05 12:57:54;;;;;;;5.03;4.53;;;7.90;99.90;;;;;;5096739;28;20036;-65
2021/12/05 13:00:25;;;;;;;4.82;4.20;;;8.10;99.90;;;;;;5096050;28;20032;-64
2021/12/05 13:03:15;;;;;;;5.18;4.45;;;8.10;99.90;;;;;;5096845;28;20020;-64
2021/12/05 13:11:06;;;;;;;4.95;4.22;;;8.30;99.90;;;;;;5096678;28;20024;-64
2021/12/05 13:13:36;;;;;;;4.95;3.88;;;8.20;99.90;;;;;;5096633;28;20039;-63
2021/12/05 13:16:26;;;;;;;4.45;4.00;;;8.00;99.90;;;;;;5096506;28;20330;-63
2021/12/05 13:19:23;;;;;;;6.50;4.40;;;7.90;99.90;;;;;;5096605;28;20417;-64
2021/12/05 13:21:52;;;;;;;5.53;4.35;;;8.10;99.90;;;;;;5095233;28;20039;-64
2021/12/05 13:24:20;;;;;;;4.45;4.05;;;8.20;99.90;;;;;;5096883;28;20297;-64
2021/12/05 13:26:46;;;;;;;4.70;4.30;;;8.30;99.90;;;;;;5097961;28;20024;-64
2021/12/05 13:29:20;;;;;;;5.25;4.75;;;8.40;99.90;;;;;;5100374;28;20032;-64
2021/12/05 13:32:05;;;;;;;4.82;4.43;;;8.60;99.90;;;;;;5100308;28;20024;-63
2021/12/05 13:34:54;;;;;;;5.10;4.57;;;8.60;99.90;;;;;;5099995;28;20101;-64
2021/12/05 13:37:32;;;;;;;5.18;4.68;;;8.60;99.90;;;;;;5099952;28;20036;-64
2021/12/05 13:40:22;;;;;;;4.95;4.15;;;8.60;99.90;;;;;;5100186;28;20051;-64
2021/12/05 13:43:00;;;;;;;5.30;4.80;;;8.50;99.90;;;;;;5100593;28;20030;-63
2021/12/05 13:45:25;;;;;;;4.50;4.20;;;8.50;99.90;;;;;;5099297;28;20042;-62
2021/12/05 13:47:51;;;;;;;5.13;4.65;;;8.20;99.90;;;;;;5099942;28;20294;-63
2021/12/05 13:50:26;;;;;;;4.43;4.03;;;7.70;99.90;;;;;;5099200;28;20119;-64
2021/12/05 13:53:19;;;;;;;5.07;4.57;;;7.40;99.90;;;;;;5099936;28;20020;-64
2021/12/05 13:55:49;;;;;;;4.90;4.50;;;7.40;99.90;;;;;;5094983;28;20047;-63
2021/12/05 13:58:38;;;;;;;6.10;4.57;;;7.30;99.90;;;;;;5082042;28;20046;-62
2021/12/05 14:01:07;;;;;;;4.93;3.92;;;7.00;99.90;;;;;;5099899;28;20036;-64
2021/12/05 14:03:53;;;;;;;5.00;4.57;;;6.90;99.90;;;;;;5099706;28;20032;-63
2021/12/05 14:06:31;;;;;;;7.00;5.10;;;7.00;99.90;;;;;;5078290;28;20390;-63
2021/12/05 14:09:05;;;;;;;5.60;5.10;;;6.80;99.90;;;;;;5098792;28;20032;-63
2021/12/05 14:11:32;;;;;;;7.70;4.78;;;6.70;99.90;;;;;;5099672;28;20058;-63
2021/12/05 14:14:01;;;;;;;6.95;5.70;;;6.60;99.90;;;;;;5099577;28;20032;-63
2021/12/05 14:16:33;;;;;;;6.68;5.82;;;6.70;99.90;;;;;;5098673;28;20048;-63
2021/12/05 14:18:59;;;;;;;8.30;5.97;;;7.00;99.90;;;;;;5099471;28;20082;-63
2021/12/05 14:21:26;;;;;;;7.32;6.63;;;7.00;99.90;;;;;;5099453;28;20391;-64
2021/12/05 14:23:55;;;;;;;8.25;6.30;;;7.00;99.90;;;;;;5099354;28;20111;-64
2021/12/05 14:26:25;;;;;;;7.35;6.47;;;7.00;99.90;;;;;;5099304;28;20040;-64
2021/12/05 14:29:12;;;;;;;7.43;6.20;;;7.00;99.90;;;;;;5099230;28;20036;-65
2021/12/05 14:31:46;;;;;;;6.88;6.10;;;6.80;99.90;;;;;;5099318;28;20333;-63
2021/12/05 14:34:12;;;;;;;6.80;6.00;;;6.90;99.90;;;;;;5099700;28;20032;-63
2021/12/05 14:36:45;;;;;;;6.75;6.05;;;7.00;99.90;;;;;;5098407;28;20059;-63
2021/12/05 14:39:19;;;;;;;6.13;5.53;;;7.00;99.90;;;;;;5097480;28;20024;-64
2021/12/05 14:41:48;;;;;;;6.68;5.95;;;7.00;99.90;;;;;;5099064;28;20329;-65
2021/12/05 14:44:15;;;;;;;7.22;6.30;;;7.00;99.90;;;;;;5098992;28;20028;-62
2021/12/05 14:46:53;;;;;;;6.93;6.20;;;7.10;99.90;;;;;;5098427;28;20272;-63
2021/12/05 14:49:22;;;;;;;6.68;6.07;;;7.20;99.90;;;;;;5098747;28;20028;-62
2021/12/05 14:51:49;;;;;;;6.70;6.00;;;7.20;99.90;;;;;;5098769;28;20091;-63
2021/12/05 14:54:22;;;;;;;8.80;5.57;;;7.10;99.90;;;;;;5098758;28;20023;-63
2021/12/05 14:56:49;;;;;;;6.50;5.55;;;7.10;99.90;;;;;;5098806;28;20125;-65
2021/12/05 14:59:16;;;;;;;6.30;5.57;;;6.90;99.90;;;;;;5098641;28;20074;-64
2021/12/05 15:01:46;;;;;;;5.90;5.40;;;6.80;99.90;;;;;;5097907;28;20031;-63
2021/12/05 15:04:17;;;;;;;6.90;5.97;;;6.80;99.90;;;;;;5097665;28;20016;-63
2021/12/05 15:06:44;;;;;;;6.47;5.75;;;6.80;99.90;;;;;;5098462;28;20028;-63
2021/12/05 15:09:21;;;;;;;7.18;6.28;;;7.00;99.90;;;;;;5098252;28;20290;-64
2021/12/05 15:11:53;;;;;;;8.77;5.78;;;7.10;99.90;;;;;;5097544;28;20062;-63
2021/12/05 15:14:19;;;;;;;;;;;7.20;99.90;;;;;;5097901;28;20299;-63
2021/12/05 15:17:00;;;;;;;6.80;5.97;;;7.40;99.90;;;;;;5098026;28;19916;-63
2021/12/05 15:19:27;;;;;;;5.97;5.45;;;7.40;99.90;;;;;;5080395;28;20302;-62
2021/12/05 15:21:53;;;;;;;6.40;5.78;;;7.20;99.90;;;;;;5098073;28;20032;-61
2021/12/05 15:24:25;;;;;;;6.80;5.90;;;7.30;99.90;;;;;;5097935;28;20031;-63
2021/12/05 15:26:51;;;;;;;;;;;7.40;99.90;;;;;;5098290;28;20024;-63
2021/12/05 15:29:17;;;;;;;7.40;6.03;;;7.40;99.90;;;;;;5098531;28;20288;-63
2021/12/05 15:31:44;;;;;;;7.20;5.93;;;7.50;99.90;;;;;;5097347;28;20135;-63
2021/12/05 15:34:34;;;;;;;7.10;6.35;;;7.40;99.90;;;;;;5096950;28;20036;-63
2021/12/05 15:37:10;;;;;;;7.18;6.47;;;7.50;99.90;;;;;;5097652;28;20334;-63
2021/12/05 15:39:39;;;;;;;8.40;6.80;;;7.50;99.90;;;;;;5097774;28;20028;-64
2021/12/05 15:42:32;;;;;;;8.10;6.80;;;7.50;99.90;;;;;;5097089;28;20028;-63
2021/12/05 15:45:01;;;;;;;6.88;5.95;;;7.50;99.90;;;;;;5097738;28;20295;-63
2021/12/05 15:47:29;;;;;;;8.70;6.22;;;7.40;99.90;;;;;;5098076;28;20024;-64
2021/12/05 15:50:08;;;;;;;7.07;6.38;;;7.40;99.90;;;;;;5097606;28;20036;-63
2021/12/05 15:52:38;;;;;;;7.00;6.30;;;7.40;99.90;;;;;;5097475;28;20096;-63
2021/12/05 15:55:12;;;;;;;8.13;6.65;;;7.30;99.90;;;;;;5097328;28;20080;-63
2021/12/05 15:57:40;;;;;;;10.25;7.25;;;7.20;99.90;;;;;;5097416;28;20039;-64
2021/12/05 16:00:29;;;;;;;7.80;7.00;;;7.10;99.90;;;;;;5097267;28;20054;-63
2021/12/05 16:03:04;;;;;;;9.50;7.30;;;7.10;99.90;;;;;;5097453;28;20028;-63
2021/12/05 16:05:31;;;;;;;9.50;8.00;;;7.10;99.90;;;;;;5097211;28;20028;-63
2021/12/05 16:08:06;;;;;;;11.20;8.63;;;7.00;99.90;;;;;;5097339;28;20039;-63
2021/12/05 16:10:36;;;;;;;10.40;9.30;;;6.90;99.90;;;;;;5096716;28;20040;-63
2021/12/05 16:13:28;;;;;;;12.18;9.68;;;6.90;99.90;;;;;;5096422;28;20050;-63
2021/12/05 16:16:05;;;;;;;13.80;10.80;;;7.00;99.90;;;;;;5096746;28;20046;-63
2021/12/05 16:18:35;;;;;;;13.30;10.45;;;7.10;99.90;;;;;;5097001;28;20113;-64
2021/12/05 16:21:05;;;;;;;14.02;10.98;;;7.10;99.90;;;;;;5096998;28;20054;-64
2021/12/05 16:23:38;;;;;;;17.05;12.18;;;7.10;99.90;;;;;;5097298;28;20115;-65
2021/12/05 16:26:11;;;;;;;17.85;13.45;;;7.10;99.90;;;;;;5096286;28;20032;-63
2021/12/05 16:29:13;;;;;;;17.23;12.80;;;7.20;99.90;;;;;;5096884;28;20028;-63
2021/12/05 16:31:59;;;;;;;16.05;11.82;;;7.10;99.90;;;;;;5079187;28;20035;-63
2021/12/05 16:34:33;;;;;;;16.95;12.88;;;7.00;99.90;;;;;;5096983;28;20273;-63
2021/12/05 16:37:05;;;;;;;14.48;11.35;;;7.00;99.90;;;;;;5096870;28;20298;-63
2021/12/05 16:39:48;;;;;;;15.15;11.95;;;7.10;99.90;;;;;;5096873;28;20028;-64
2021/12/05 16:42:21;;;;;;;17.13;12.48;;;7.10;99.90;;;;;;5096929;28;20107;-62
2021/12/05 16:44:53;;;;;;;;;;;7.10;99.90;;;;;;5097701;28;20028;-63
2021/12/05 16:47:23;;;;;;;16.13;12.18;;;7.00;99.90;;;;;;5095987;28;20275;-63
2021/12/05 16:49:52;;;;;;;17.33;12.70;;;6.90;99.90;;;;;;5096735;28;20031;-63
2021/12/05 16:52:32;;;;;;;16.08;12.73;;;6.80;99.90;;;;;;5095914;28;20024;-64
2021/12/05 16:55:10;;;;;;;17.73;13.18;;;6.90;99.90;;;;;;5097169;28;20055;-63
2021/12/05 16:57:45;;;;;;;17.20;13.35;;;6.90;99.90;;;;;;5095818;28;20391;-62
2021/12/05 17:00:16;;;;;;;20.88;14.70;;;6.90;99.90;;;;;;5095932;28;20058;-63
2021/12/05 17:02:55;;;;;;;14.57;11.38;;;6.90;99.90;;;;;;5099213;28;20126;-63
2021/12/05 17:05:36;;;;;;;17.17;13.55;;;7.00;99.90;;;;;;5101047;28;20398;-63
2021/12/05 17:08:16;;;;;;;16.55;13.10;;;6.90;99.90;;;;;;5099757;28;20028;-64
2021/12/05 17:10:54;;;;;;;20.20;13.93;;;6.90;99.90;;;;;;5099934;28;20044;-63
2021/12/05 17:13:31;;;;;;;18.10;13.45;;;6.90;99.90;;;;;;5100687;28;20563;-64
2021/12/05 17:16:14;;;;;;;15.85;13.10;;;6.80;99.90;;;;;;5100756;28;20040;-64
2021/12/05 17:19:04;;;;;;;15.95;12.35;;;6.90;99.90;;;;;;5099877;28;20036;-64
2021/12/05 17:21:35;;;;;;;18.35;13.18;;;6.90;99.90;;;;;;5100662;28;20040;-63
2021/12/05 17:24:14;;;;;;;15.68;13.07;;;7.00;99.90;;;;;;5100756;28;20393;-63
2021/12/05 17:26:43;;;;;;;14.52;12.45;;;7.00;99.90;;;;;;5100419;28;20031;-64
2021/12/05 17:29:20;;;;;;;15.93;13.18;;;7.00;99.90;;;;;;5100560;28;20047;-62
2021/12/05 17:31:54;;;;;;;15.88;12.32;;;7.00;99.90;;;;;;5100655;28;20028;-63
2021/12/05 17:34:33;;;;;;;15.43;11.95;;;6.90;99.90;;;;;;5100382;28;20032;-63
2021/12/05 17:37:11;;;;;;;17.83;13.35;;;6.90;99.90;;;;;;5100839;28;20032;-64
2021/12/05 17:39:40;;;;;;;18.15;14.57;;;6.90;99.90;;;;;;5100134;28;20036;-64
2021/12/05 17:42:18;;;;;;;18.17;14.25;;;7.00;99.90;;;;;;5100245;28;20020;-63
2021/12/05 17:44:46;;;;;;;17.85;13.07;;;7.00;99.90;;;;;;5101431;28;20032;-62
2021/12/05 17:47:14;;;;;;;21.17;15.20;;;7.00;99.90;;;;;;5099220;28;20119;-62
2021/12/05 17:49:44;;;;;;;19.17;15.25;;;6.90;99.90;;;;;;5099167;28;20024;-63
2021/12/05 17:52:12;;;;;;;25.90;17.23;;;6.90;99.90;;;;;;5099392;28;20020;-62
2021/12/05 17:54:51;;;;;;;25.58;17.42;;;6.90;99.90;;;;;;5099736;28;20024;-62
2021/12/05 17:57:23;;;;;;;22.25;15.82;;;7.00;99.90;;;;;;5099067;28;20032;-63
2021/12/05 18:02:53;;;;;;;15.98;12.85;;;7.00;99.90;;;;;;5087781;28;20501;-63
2021/12/05 18:05:24;;;;;;;18.63;13.63;;;6.90;99.90;;;;;;5099021;28;20047;-63
2021/12/05 18:07:54;;;;;;;19.58;14.85;;;6.90;99.90;;;;;;5099542;28;20077;-64
2021/12/05 18:10:25;;;;;;;19.17;15.05;;;6.90;99.90;;;;;;5099843;28;20438;-62
2021/12/05 18:12:53;;;;;;;17.30;12.38;;;6.80;99.90;;;;;;5099286;28;20039;-63
2021/12/05 18:15:27;;;;;;;20.20;15.35;;;6.90;99.90;;;;;;5098951;28;20314;-64
2021/12/05 18:17:55;;;;;;;25.05;16.50;;;6.90;99.90;;;;;;5098561;28;20093;-63
2021/12/05 18:20:25;;;;;;;22.65;16.77;;;6.80;99.90;;;;;;5098544;28;20097;-63
2021/12/05 18:23:00;;;;;;;21.40;15.25;;;6.80;99.90;;;;;;5099850;28;20032;-63
2021/12/05 18:25:27;;;;;;;20.45;15.57;;;6.80;99.90;;;;;;5099225;28;20251;-65
2021/12/05 18:27:54;;;;;;;26.92;19.17;;;6.70;99.90;;;;;;5099655;28;20067;-63
2021/12/05 18:30:23;;;;;;;22.55;17.85;;;6.70;99.90;;;;;;5099433;28;20039;-64
2021/12/05 18:32:50;;;;;;;25.95;20.65;;;6.80;99.90;;;;;;5099117;28;20107;-64
2021/12/05 18:35:17;;;;;;;26.63;20.98;;;6.80;99.90;;;;;;5098480;28;20032;-62
2021/12/05 18:37:44;;;;;;;27.77;20.45;;;6.80;99.90;;;;;;5099249;28;20035;-62
2021/12/05 18:40:11;;;;;;;26.75;20.58;;;6.80;99.90;;;;;;5099027;28;20035;-62
2021/12/05 18:42:38;;;;;;;27.52;19.73;;;6.90;99.90;;;;;;5099030;28;20036;-63
2021/12/05 18:45:06;;;;;;;25.17;19.55;;;6.90;99.90;;;;;;5098904;28;20027;-62
2021/12/05 18:47:32;;;;;;;26.00;19.63;;;6.90;99.90;;;;;;5099394;28;20149;-64